sensor_id;sensor_type;location;lat;lon;timestamp;P1;durP1;ratioP1;P2;durP2;ratioP2
25846;SDS011;13676;50.168;8.568;2023-07-16T00:00:29;2.95;;;1.95;;
25846;SDS011;13676;50.168;8.568;2023-07-16T00:02:55;3.03;;;1.40;;
25846;SDS011;13676;50.168;8.568;2023-07-16T00:05:21;2.72;;;1.48;;
25846;SDS011;13676;50.168;8.568;2023-07-16T00:07:47;4.20;;;1.80;;
25846;SDS011;13676;50.168;8.568;2023-07-16T00:10:13;3.28;;;1.80;;
25846;SDS011;13676;50.168;8.568;2023-07-16T00:12:39;2.15;;;1.63;;
25846;SDS011;13676;50.168;8.568;2023-07-16T00:15:05;2.30;;;1.60;;
25846;SDS011;13676;50.168;8.568;2023-07-16T00:17:35;4.28;;;1.70;;
25846;SDS011;13676;50.168;8.568;2023-07-16T00:20:01;3.47;;;1.85;;
25846;SDS011;13676;50.168;8.568;2023-07-16T00:22:26;3.25;;;1.88;;
25846;SDS011;13676;50.168;8.568;2023-07-16T00:24:52;3.50;;;1.83;;
25846;SDS011;13676;50.168;8.568;2023-07-16T00:27:17;6.68;;;1.77;;
25846;SDS011;13676;50.168;8.568;2023-07-16T00:29:43;3.80;;;2.33;;
25846;SDS011;13676;50.168;8.568;2023-07-16T00:32:08;6.03;;;2.10;;
25846;SDS011;13676;50.168;8.568;2023-07-16T00:34:34;5.65;;;1.85;;
25846;SDS011;13676;50.168;8.568;2023-07-16T00:36:59;5.05;;;2.35;;
25846;SDS011;13676;50.168;8.568;2023-07-16T00:39:29;5.63;;;2.15;;
25846;SDS011;13676;50.168;8.568;2023-07-16T00:41:56;3.88;;;1.85;;
25846;SDS011;13676;50.168;8.568;2023-07-16T00:44:22;5.85;;;1.50;;
25846;SDS011;13676;50.168;8.568;2023-07-16T00:46:47;3.65;;;1.70;;
25846;SDS011;13676;50.168;8.568;2023-07-16T00:49:13;3.35;;;1.60;;
25846;SDS011;13676;50.168;8.568;2023-07-16T00:51:39;2.22;;;1.50;;
25846;SDS011;13676;50.168;8.568;2023-07-16T00:54:07;3.17;;;1.50;;
25846;SDS011;13676;50.168;8.568;2023-07-16T00:56:33;2.95;;;1.30;;
25846;SDS011;13676;50.168;8.568;2023-07-16T00:58:59;3.80;;;1.85;;
25846;SDS011;13676;50.168;8.568;2023-07-16T01:01:25;4.07;;;1.25;;
25846;SDS011;13676;50.168;8.568;2023-07-16T01:03:51;4.25;;;1.58;;
25846;SDS011;13676;50.168;8.568;2023-07-16T01:06:18;2.08;;;1.42;;
25846;SDS011;13676;50.168;8.568;2023-07-16T01:09:03;2.72;;;1.17;;
25846;SDS011;13676;50.168;8.568;2023-07-16T01:11:32;3.00;;;1.45;;
25846;SDS011;13676;50.168;8.568;2023-07-16T01:14:00;2.53;;;1.42;;
25846;SDS011;13676;50.168;8.568;2023-07-16T01:16:26;4.55;;;1.48;;
25846;SDS011;13676;50.168;8.568;2023-07-16T01:18:52;5.72;;;1.25;;
25846;SDS011;13676;50.168;8.568;2023-07-16T01:21:22;2.50;;;1.40;;
25846;SDS011;13676;50.168;8.568;2023-07-16T01:29:38;2.60;;;1.30;;
25846;SDS011;13676;50.168;8.568;2023-07-16T01:32:07;3.17;;;1.55;;
25846;SDS011;13676;50.168;8.568;2023-07-16T01:34:33;7.20;;;1.92;;
25846;SDS011;13676;50.168;8.568;2023-07-16T01:37:03;4.00;;;1.60;;
25846;SDS011;13676;50.168;8.568;2023-07-16T01:39:29;1.70;;;1.38;;
25846;SDS011;13676;50.168;8.568;2023-07-16T01:41:55;3.90;;;1.40;;
25846;SDS011;13676;50.168;8.568;2023-07-16T01:44:21;5.65;;;1.75;;
25846;SDS011;13676;50.168;8.568;2023-07-16T01:46:49;5.50;;;1.90;;
25846;SDS011;13676;50.168;8.568;2023-07-16T01:49:34;7.65;;;1.50;;
25846;SDS011;13676;50.168;8.568;2023-07-16T01:52:00;2.30;;;1.50;;
25846;SDS011;13676;50.168;8.568;2023-07-16T01:54:26;2.58;;;1.20;;
25846;SDS011;13676;50.168;8.568;2023-07-16T01:56:51;3.22;;;1.00;;
25846;SDS011;13676;50.168;8.568;2023-07-16T01:59:17;2.25;;;1.17;;
25846;SDS011;13676;50.168;8.568;2023-07-16T02:01:42;1.92;;;1.00;;
25846;SDS011;13676;50.168;8.568;2023-07-16T02:04:07;4.00;;;1.10;;
25846;SDS011;13676;50.168;8.568;2023-07-16T02:06:33;3.75;;;1.55;;
25846;SDS011;13676;50.168;8.568;2023-07-16T02:08:58;1.65;;;1.23;;
25846;SDS011;13676;50.168;8.568;2023-07-16T02:11:23;3.53;;;1.20;;
25846;SDS011;13676;50.168;8.568;2023-07-16T02:13:48;1.35;;;1.13;;
25846;SDS011;13676;50.168;8.568;2023-07-16T02:16:14;4.07;;;1.15;;
25846;SDS011;13676;50.168;8.568;2023-07-16T02:18:41;4.10;;;1.30;;
25846;SDS011;13676;50.168;8.568;2023-07-16T02:21:06;1.80;;;1.15;;
25846;SDS011;13676;50.168;8.568;2023-07-16T02:23:31;3.30;;;1.27;;
25846;SDS011;13676;50.168;8.568;2023-07-16T02:25:57;3.45;;;1.10;;
25846;SDS011;13676;50.168;8.568;2023-07-16T02:28:24;3.30;;;1.15;;
25846;SDS011;13676;50.168;8.568;2023-07-16T02:30:49;3.63;;;1.13;;
25846;SDS011;13676;50.168;8.568;2023-07-16T02:33:16;3.60;;;1.40;;
25846;SDS011;13676;50.168;8.568;2023-07-16T02:35:45;1.75;;;1.05;;
25846;SDS011;13676;50.168;8.568;2023-07-16T02:38:14;2.17;;;1.00;;
25846;SDS011;13676;50.168;8.568;2023-07-16T02:40:43;2.35;;;1.15;;
25846;SDS011;13676;50.168;8.568;2023-07-16T02:43:10;1.77;;;1.00;;
25846;SDS011;13676;50.168;8.568;2023-07-16T02:45:35;5.32;;;1.00;;
25846;SDS011;13676;50.168;8.568;2023-07-16T02:48:01;6.47;;;1.30;;
25846;SDS011;13676;50.168;8.568;2023-07-16T02:50:29;2.17;;;0.90;;
25846;SDS011;13676;50.168;8.568;2023-07-16T02:52:55;3.95;;;1.17;;
25846;SDS011;13676;50.168;8.568;2023-07-16T02:55:20;1.40;;;1.25;;
25846;SDS011;13676;50.168;8.568;2023-07-16T02:57:47;4.75;;;1.50;;
25846;SDS011;13676;50.168;8.568;2023-07-16T03:00:13;4.93;;;1.30;;
25846;SDS011;13676;50.168;8.568;2023-07-16T03:02:40;4.53;;;1.10;;
25846;SDS011;13676;50.168;8.568;2023-07-16T03:05:05;1.35;;;1.00;;
25846;SDS011;13676;50.168;8.568;2023-07-16T03:07:31;9.57;;;1.85;;
25846;SDS011;13676;50.168;8.568;2023-07-16T03:09:57;2.38;;;1.27;;
25846;SDS011;13676;50.168;8.568;2023-07-16T03:12:22;3.92;;;1.38;;
25846;SDS011;13676;50.168;8.568;2023-07-16T03:14:49;1.67;;;1.20;;
25846;SDS011;13676;50.168;8.568;2023-07-16T03:17:15;4.90;;;1.85;;
25846;SDS011;13676;50.168;8.568;2023-07-16T03:19:41;4.53;;;1.30;;
25846;SDS011;13676;50.168;8.568;2023-07-16T03:22:06;7.90;;;1.35;;
25846;SDS011;13676;50.168;8.568;2023-07-16T03:24:32;3.90;;;1.30;;
25846;SDS011;13676;50.168;8.568;2023-07-16T03:27:00;5.82;;;1.40;;
25846;SDS011;13676;50.168;8.568;2023-07-16T03:29:25;3.33;;;1.48;;
25846;SDS011;13676;50.168;8.568;2023-07-16T03:31:51;4.90;;;1.75;;
25846;SDS011;13676;50.168;8.568;2023-07-16T03:34:16;3.53;;;1.20;;
25846;SDS011;13676;50.168;8.568;2023-07-16T03:36:42;4.75;;;1.48;;
25846;SDS011;13676;50.168;8.568;2023-07-16T03:39:07;5.20;;;1.73;;
25846;SDS011;13676;50.168;8.568;2023-07-16T03:41:33;4.75;;;1.25;;
25846;SDS011;13676;50.168;8.568;2023-07-16T03:43:58;3.15;;;1.50;;
25846;SDS011;13676;50.168;8.568;2023-07-16T03:46:24;3.72;;;1.77;;
25846;SDS011;13676;50.168;8.568;2023-07-16T03:48:49;5.15;;;1.70;;
25846;SDS011;13676;50.168;8.568;2023-07-16T03:51:16;4.33;;;1.43;;
25846;SDS011;13676;50.168;8.568;2023-07-16T03:53:42;4.03;;;1.13;;
25846;SDS011;13676;50.168;8.568;2023-07-16T03:56:07;1.65;;;1.23;;
25846;SDS011;13676;50.168;8.568;2023-07-16T03:58:33;7.18;;;1.75;;
25846;SDS011;13676;50.168;8.568;2023-07-16T04:00:58;2.42;;;1.27;;
25846;SDS011;13676;50.168;8.568;2023-07-16T04:03:23;2.80;;;1.60;;
25846;SDS011;13676;50.168;8.568;2023-07-16T04:05:49;1.73;;;1.40;;
25846;SDS011;13676;50.168;8.568;2023-07-16T04:08:14;2.97;;;1.40;;
25846;SDS011;13676;50.168;8.568;2023-07-16T04:10:39;6.15;;;1.35;;
25846;SDS011;13676;50.168;8.568;2023-07-16T04:13:05;5.32;;;1.58;;
25846;SDS011;13676;50.168;8.568;2023-07-16T04:15:30;4.25;;;1.40;;
25846;SDS011;13676;50.168;8.568;2023-07-16T04:17:56;4.60;;;1.63;;
25846;SDS011;13676;50.168;8.568;2023-07-16T04:20:21;2.85;;;1.50;;
25846;SDS011;13676;50.168;8.568;2023-07-16T04:22:46;5.32;;;1.73;;
25846;SDS011;13676;50.168;8.568;2023-07-16T04:25:12;2.33;;;1.33;;
25846;SDS011;13676;50.168;8.568;2023-07-16T04:27:38;2.58;;;1.40;;
25846;SDS011;13676;50.168;8.568;2023-07-16T04:30:06;4.45;;;1.60;;
25846;SDS011;13676;50.168;8.568;2023-07-16T04:32:32;6.75;;;1.50;;
25846;SDS011;13676;50.168;8.568;2023-07-16T04:34:58;4.63;;;1.50;;
25846;SDS011;13676;50.168;8.568;2023-07-16T04:37:23;5.97;;;1.92;;
25846;SDS011;13676;50.168;8.568;2023-07-16T04:39:49;4.50;;;1.50;;
25846;SDS011;13676;50.168;8.568;2023-07-16T04:42:15;5.03;;;1.83;;
25846;SDS011;13676;50.168;8.568;2023-07-16T04:44:41;8.75;;;1.85;;
25846;SDS011;13676;50.168;8.568;2023-07-16T04:47:07;6.88;;;1.73;;
25846;SDS011;13676;50.168;8.568;2023-07-16T04:49:34;6.07;;;1.90;;
25846;SDS011;13676;50.168;8.568;2023-07-16T04:52:00;4.57;;;1.70;;
25846;SDS011;13676;50.168;8.568;2023-07-16T04:54:26;2.88;;;1.60;;
25846;SDS011;13676;50.168;8.568;2023-07-16T04:56:51;3.72;;;1.75;;
25846;SDS011;13676;50.168;8.568;2023-07-16T04:59:16;5.97;;;1.55;;
25846;SDS011;13676;50.168;8.568;2023-07-16T05:01:42;5.10;;;1.58;;
25846;SDS011;13676;50.168;8.568;2023-07-16T05:04:07;3.25;;;1.80;;
25846;SDS011;13676;50.168;8.568;2023-07-16T05:06:33;6.07;;;1.90;;
25846;SDS011;13676;50.168;8.568;2023-07-16T05:09:00;7.45;;;2.25;;
25846;SDS011;13676;50.168;8.568;2023-07-16T05:11:26;5.35;;;2.33;;
25846;SDS011;13676;50.168;8.568;2023-07-16T05:13:52;6.63;;;2.35;;
25846;SDS011;13676;50.168;8.568;2023-07-16T05:16:17;5.30;;;2.10;;
25846;SDS011;13676;50.168;8.568;2023-07-16T05:18:42;4.40;;;2.10;;
25846;SDS011;13676;50.168;8.568;2023-07-16T05:21:08;3.35;;;1.80;;
25846;SDS011;13676;50.168;8.568;2023-07-16T05:23:33;8.77;;;1.95;;
25846;SDS011;13676;50.168;8.568;2023-07-16T05:25:58;5.95;;;2.20;;
25846;SDS011;13676;50.168;8.568;2023-07-16T05:28:24;6.43;;;2.13;;
25846;SDS011;13676;50.168;8.568;2023-07-16T05:30:57;5.93;;;2.25;;
25846;SDS011;13676;50.168;8.568;2023-07-16T05:33:25;7.10;;;2.38;;
25846;SDS011;13676;50.168;8.568;2023-07-16T05:35:51;7.18;;;2.78;;
25846;SDS011;13676;50.168;8.568;2023-07-16T05:38:16;5.15;;;2.03;;
25846;SDS011;13676;50.168;8.568;2023-07-16T05:40:41;8.13;;;2.13;;
25846;SDS011;13676;50.168;8.568;2023-07-16T05:43:07;5.40;;;2.00;;
25846;SDS011;13676;50.168;8.568;2023-07-16T05:45:32;13.52;;;2.20;;
25846;SDS011;13676;50.168;8.568;2023-07-16T05:47:57;10.95;;;2.63;;
25846;SDS011;13676;50.168;8.568;2023-07-16T05:50:24;4.97;;;1.50;;
25846;SDS011;13676;50.168;8.568;2023-07-16T05:52:49;9.27;;;2.28;;
25846;SDS011;13676;50.168;8.568;2023-07-16T05:55:14;5.47;;;1.63;;
25846;SDS011;13676;50.168;8.568;2023-07-16T05:57:40;3.53;;;1.45;;
25846;SDS011;13676;50.168;8.568;2023-07-16T06:00:05;8.38;;;1.70;;
25846;SDS011;13676;50.168;8.568;2023-07-16T06:02:32;6.35;;;2.05;;
25846;SDS011;13676;50.168;8.568;2023-07-16T06:04:57;8.80;;;1.80;;
25846;SDS011;13676;50.168;8.568;2023-07-16T06:07:22;4.25;;;1.75;;
25846;SDS011;13676;50.168;8.568;2023-07-16T06:09:48;6.72;;;1.80;;
25846;SDS011;13676;50.168;8.568;2023-07-16T06:12:13;6.50;;;2.25;;
25846;SDS011;13676;50.168;8.568;2023-07-16T06:14:39;3.92;;;1.40;;
25846;SDS011;13676;50.168;8.568;2023-07-16T06:17:04;7.65;;;2.05;;
25846;SDS011;13676;50.168;8.568;2023-07-16T06:19:30;7.55;;;1.88;;
25846;SDS011;13676;50.168;8.568;2023-07-16T06:21:56;9.63;;;2.55;;
25846;SDS011;13676;50.168;8.568;2023-07-16T06:24:22;6.10;;;2.10;;
25846;SDS011;13676;50.168;8.568;2023-07-16T06:26:47;7.75;;;2.33;;
25846;SDS011;13676;50.168;8.568;2023-07-16T06:29:13;5.95;;;2.08;;
25846;SDS011;13676;50.168;8.568;2023-07-16T06:31:38;7.95;;;1.85;;
25846;SDS011;13676;50.168;8.568;2023-07-16T06:34:05;5.45;;;1.80;;
25846;SDS011;13676;50.168;8.568;2023-07-16T06:36:30;5.32;;;2.38;;
25846;SDS011;13676;50.168;8.568;2023-07-16T06:38:55;5.15;;;2.00;;
25846;SDS011;13676;50.168;8.568;2023-07-16T06:41:21;5.53;;;1.85;;
25846;SDS011;13676;50.168;8.568;2023-07-16T06:43:46;4.75;;;1.92;;
25846;SDS011;13676;50.168;8.568;2023-07-16T06:46:11;9.05;;;2.50;;
25846;SDS011;13676;50.168;8.568;2023-07-16T06:48:37;6.57;;;2.33;;
25846;SDS011;13676;50.168;8.568;2023-07-16T06:51:02;6.40;;;1.70;;
25846;SDS011;13676;50.168;8.568;2023-07-16T06:53:28;8.40;;;2.80;;
25846;SDS011;13676;50.168;8.568;2023-07-16T06:55:53;10.35;;;2.60;;
25846;SDS011;13676;50.168;8.568;2023-07-16T06:58:19;4.60;;;2.17;;
25846;SDS011;13676;50.168;8.568;2023-07-16T07:00:44;9.13;;;2.78;;
25846;SDS011;13676;50.168;8.568;2023-07-16T07:03:09;11.35;;;2.40;;
25846;SDS011;13676;50.168;8.568;2023-07-16T07:05:35;6.95;;;2.30;;
25846;SDS011;13676;50.168;8.568;2023-07-16T07:08:01;8.52;;;2.38;;
25846;SDS011;13676;50.168;8.568;2023-07-16T07:10:27;8.05;;;2.83;;
25846;SDS011;13676;50.168;8.568;2023-07-16T07:12:52;5.55;;;2.08;;
25846;SDS011;13676;50.168;8.568;2023-07-16T07:15:19;6.88;;;2.63;;
25846;SDS011;13676;50.168;8.568;2023-07-16T07:17:44;6.10;;;2.45;;
25846;SDS011;13676;50.168;8.568;2023-07-16T07:20:12;7.22;;;2.67;;
25846;SDS011;13676;50.168;8.568;2023-07-16T07:22:38;6.95;;;2.42;;
25846;SDS011;13676;50.168;8.568;2023-07-16T07:25:03;7.55;;;2.33;;
25846;SDS011;13676;50.168;8.568;2023-07-16T07:27:29;7.38;;;3.03;;
25846;SDS011;13676;50.168;8.568;2023-07-16T07:29:55;7.03;;;2.67;;
25846;SDS011;13676;50.168;8.568;2023-07-16T07:32:23;4.85;;;2.30;;
25846;SDS011;13676;50.168;8.568;2023-07-16T07:34:48;6.30;;;2.50;;
25846;SDS011;13676;50.168;8.568;2023-07-16T07:37:13;6.95;;;2.25;;
25846;SDS011;13676;50.168;8.568;2023-07-16T07:39:39;8.70;;;2.88;;
25846;SDS011;13676;50.168;8.568;2023-07-16T07:42:04;6.85;;;2.50;;
25846;SDS011;13676;50.168;8.568;2023-07-16T07:44:30;6.22;;;2.33;;
25846;SDS011;13676;50.168;8.568;2023-07-16T07:46:56;6.85;;;3.00;;
25846;SDS011;13676;50.168;8.568;2023-07-16T07:49:21;7.25;;;2.53;;
25846;SDS011;13676;50.168;8.568;2023-07-16T07:51:46;6.82;;;2.70;;
25846;SDS011;13676;50.168;8.568;2023-07-16T07:54:14;9.60;;;2.53;;
25846;SDS011;13676;50.168;8.568;2023-07-16T07:56:41;9.23;;;2.70;;
25846;SDS011;13676;50.168;8.568;2023-07-16T07:59:06;8.80;;;2.53;;
25846;SDS011;13676;50.168;8.568;2023-07-16T08:01:31;7.93;;;2.20;;
25846;SDS011;13676;50.168;8.568;2023-07-16T08:03:57;8.98;;;2.60;;
25846;SDS011;13676;50.168;8.568;2023-07-16T08:06:22;6.13;;;2.40;;
25846;SDS011;13676;50.168;8.568;2023-07-16T08:08:47;7.95;;;2.63;;
25846;SDS011;13676;50.168;8.568;2023-07-16T08:11:14;8.40;;;2.72;;
25846;SDS011;13676;50.168;8.568;2023-07-16T08:13:40;6.15;;;2.80;;
25846;SDS011;13676;50.168;8.568;2023-07-16T08:16:05;5.85;;;2.47;;
25846;SDS011;13676;50.168;8.568;2023-07-16T08:18:30;8.10;;;2.80;;
25846;SDS011;13676;50.168;8.568;2023-07-16T08:20:56;6.45;;;2.33;;
25846;SDS011;13676;50.168;8.568;2023-07-16T08:23:21;7.88;;;2.30;;
25846;SDS011;13676;50.168;8.568;2023-07-16T08:25:46;5.85;;;2.28;;
25846;SDS011;13676;50.168;8.568;2023-07-16T08:28:12;6.60;;;2.28;;
25846;SDS011;13676;50.168;8.568;2023-07-16T08:30:38;3.72;;;1.80;;
25846;SDS011;13676;50.168;8.568;2023-07-16T08:33:03;4.47;;;2.10;;
25846;SDS011;13676;50.168;8.568;2023-07-16T08:35:29;5.82;;;2.22;;
25846;SDS011;13676;50.168;8.568;2023-07-16T08:37:54;6.95;;;2.58;;
25846;SDS011;13676;50.168;8.568;2023-07-16T08:40:20;8.87;;;2.20;;
25846;SDS011;13676;50.168;8.568;2023-07-16T08:42:46;5.65;;;2.38;;
25846;SDS011;13676;50.168;8.568;2023-07-16T08:45:12;11.50;;;2.80;;
25846;SDS011;13676;50.168;8.568;2023-07-16T08:47:39;3.95;;;2.30;;
25846;SDS011;13676;50.168;8.568;2023-07-16T08:50:05;7.20;;;2.15;;
25846;SDS011;13676;50.168;8.568;2023-07-16T08:52:30;5.28;;;2.10;;
25846;SDS011;13676;50.168;8.568;2023-07-16T08:54:56;6.80;;;2.30;;
25846;SDS011;13676;50.168;8.568;2023-07-16T08:57:24;7.18;;;2.15;;
25846;SDS011;13676;50.168;8.568;2023-07-16T08:59:51;5.97;;;2.10;;
25846;SDS011;13676;50.168;8.568;2023-07-16T09:02:18;4.37;;;1.77;;
25846;SDS011;13676;50.168;8.568;2023-07-16T09:04:44;8.18;;;2.00;;
25846;SDS011;13676;50.168;8.568;2023-07-16T09:07:12;5.15;;;1.92;;
25846;SDS011;13676;50.168;8.568;2023-07-16T09:09:37;4.45;;;1.90;;
25846;SDS011;13676;50.168;8.568;2023-07-16T09:12:03;4.82;;;2.05;;
25846;SDS011;13676;50.168;8.568;2023-07-16T09:14:28;5.18;;;2.15;;
25846;SDS011;13676;50.168;8.568;2023-07-16T09:16:54;6.13;;;1.92;;
25846;SDS011;13676;50.168;8.568;2023-07-16T09:19:20;5.93;;;2.17;;
25846;SDS011;13676;50.168;8.568;2023-07-16T09:21:49;9.03;;;1.80;;
25846;SDS011;13676;50.168;8.568;2023-07-16T09:24:15;3.42;;;1.67;;
25846;SDS011;13676;50.168;8.568;2023-07-16T09:26:48;7.28;;;2.45;;
25846;SDS011;13676;50.168;8.568;2023-07-16T09:29:17;6.65;;;2.80;;
25846;SDS011;13676;50.168;8.568;2023-07-16T09:34:17;6.32;;;2.28;;
25846;SDS011;13676;50.168;8.568;2023-07-16T09:36:42;3.97;;;1.63;;
25846;SDS011;13676;50.168;8.568;2023-07-16T09:39:08;9.43;;;2.58;;
25846;SDS011;13676;50.168;8.568;2023-07-16T09:41:34;5.93;;;2.17;;
25846;SDS011;13676;50.168;8.568;2023-07-16T09:44:00;6.40;;;2.00;;
25846;SDS011;13676;50.168;8.568;2023-07-16T09:46:26;6.57;;;2.75;;
25846;SDS011;13676;50.168;8.568;2023-07-16T09:48:51;4.78;;;2.00;;
25846;SDS011;13676;50.168;8.568;2023-07-16T09:51:17;5.65;;;2.10;;
25846;SDS011;13676;50.168;8.568;2023-07-16T09:53:44;7.35;;;2.13;;
25846;SDS011;13676;50.168;8.568;2023-07-16T09:56:11;5.57;;;2.08;;
25846;SDS011;13676;50.168;8.568;2023-07-16T09:58:38;3.85;;;1.73;;
25846;SDS011;13676;50.168;8.568;2023-07-16T10:01:04;4.18;;;2.00;;
25846;SDS011;13676;50.168;8.568;2023-07-16T10:03:31;5.47;;;2.38;;
25846;SDS011;13676;50.168;8.568;2023-07-16T10:06:05;6.07;;;2.47;;
25846;SDS011;13676;50.168;8.568;2023-07-16T10:08:33;5.50;;;2.42;;
25846;SDS011;13676;50.168;8.568;2023-07-16T10:10:59;5.57;;;2.38;;
25846;SDS011;13676;50.168;8.568;2023-07-16T10:13:26;5.07;;;2.10;;
25846;SDS011;13676;50.168;8.568;2023-07-16T10:18:24;6.00;;;2.38;;
25846;SDS011;13676;50.168;8.568;2023-07-16T10:21:00;8.77;;;2.30;;
25846;SDS011;13676;50.168;8.568;2023-07-16T10:23:26;7.38;;;2.28;;
25846;SDS011;13676;50.168;8.568;2023-07-16T10:26:04;5.38;;;2.17;;
25846;SDS011;13676;50.168;8.568;2023-07-16T10:28:34;7.03;;;2.35;;
25846;SDS011;13676;50.168;8.568;2023-07-16T10:31:01;5.38;;;2.15;;
25846;SDS011;13676;50.168;8.568;2023-07-16T10:33:26;7.63;;;3.20;;
25846;SDS011;13676;50.168;8.568;2023-07-16T10:35:53;7.40;;;2.30;;
25846;SDS011;13676;50.168;8.568;2023-07-16T10:38:19;7.90;;;2.40;;
25846;SDS011;13676;50.168;8.568;2023-07-16T10:40:45;5.65;;;2.38;;
25846;SDS011;13676;50.168;8.568;2023-07-16T10:43:11;3.63;;;1.98;;
25846;SDS011;13676;50.168;8.568;2023-07-16T10:45:37;10.30;;;2.50;;
25846;SDS011;13676;50.168;8.568;2023-07-16T10:48:03;5.22;;;1.90;;
25846;SDS011;13676;50.168;8.568;2023-07-16T10:50:31;6.18;;;2.38;;
25846;SDS011;13676;50.168;8.568;2023-07-16T10:53:00;8.25;;;1.90;;
25846;SDS011;13676;50.168;8.568;2023-07-16T10:57:51;8.70;;;2.30;;
25846;SDS011;13676;50.168;8.568;2023-07-16T11:00:20;7.82;;;2.78;;
25846;SDS011;13676;50.168;8.568;2023-07-16T11:02:46;3.72;;;1.90;;
25846;SDS011;13676;50.168;8.568;2023-07-16T11:05:15;4.22;;;2.10;;
25846;SDS011;13676;50.168;8.568;2023-07-16T11:07:48;7.28;;;2.72;;
25846;SDS011;13676;50.168;8.568;2023-07-16T11:10:17;4.53;;;1.92;;
25846;SDS011;13676;50.168;8.568;2023-07-16T11:12:43;4.78;;;1.80;;
25846;SDS011;13676;50.168;8.568;2023-07-16T11:15:10;8.73;;;2.30;;
25846;SDS011;13676;50.168;8.568;2023-07-16T11:17:39;5.22;;;1.80;;
25846;SDS011;13676;50.168;8.568;2023-07-16T11:20:08;7.15;;;2.08;;
25846;SDS011;13676;50.168;8.568;2023-07-16T11:22:37;7.07;;;2.60;;
25846;SDS011;13676;50.168;8.568;2023-07-16T11:25:02;6.97;;;2.53;;
25846;SDS011;13676;50.168;8.568;2023-07-16T11:27:30;4.25;;;1.90;;
25846;SDS011;13676;50.168;8.568;2023-07-16T11:29:57;3.97;;;1.77;;
25846;SDS011;13676;50.168;8.568;2023-07-16T11:32:31;6.40;;;2.50;;
25846;SDS011;13676;50.168;8.568;2023-07-16T11:35:00;4.90;;;2.08;;
25846;SDS011;13676;50.168;8.568;2023-07-16T11:37:49;2.63;;;1.65;;
25846;SDS011;13676;50.168;8.568;2023-07-16T11:40:15;6.72;;;1.90;;
25846;SDS011;13676;50.168;8.568;2023-07-16T11:45:21;7.78;;;2.03;;
25846;SDS011;13676;50.168;8.568;2023-07-16T11:47:48;7.70;;;1.98;;
25846;SDS011;13676;50.168;8.568;2023-07-16T11:50:14;8.18;;;2.45;;
25846;SDS011;13676;50.168;8.568;2023-07-16T11:52:42;4.80;;;2.55;;
25846;SDS011;13676;50.168;8.568;2023-07-16T11:55:08;4.22;;;2.13;;
25846;SDS011;13676;50.168;8.568;2023-07-16T11:57:34;8.25;;;4.60;;
25846;SDS011;13676;50.168;8.568;2023-07-16T12:00:00;12.43;;;7.13;;
25846;SDS011;13676;50.168;8.568;2023-07-16T12:02:26;6.63;;;4.40;;
25846;SDS011;13676;50.168;8.568;2023-07-16T12:04:53;5.68;;;2.10;;
25846;SDS011;13676;50.168;8.568;2023-07-16T12:10:17;6.43;;;1.92;;
25846;SDS011;13676;50.168;8.568;2023-07-16T12:12:43;5.20;;;2.30;;
25846;SDS011;13676;50.168;8.568;2023-07-16T12:15:10;5.43;;;2.28;;
25846;SDS011;13676;50.168;8.568;2023-07-16T12:17:35;4.03;;;2.00;;
25846;SDS011;13676;50.168;8.568;2023-07-16T12:20:04;4.45;;;2.20;;
25846;SDS011;13676;50.168;8.568;2023-07-16T12:22:30;4.55;;;2.13;;
25846;SDS011;13676;50.168;8.568;2023-07-16T12:24:56;13.27;;;3.25;;
25846;SDS011;13676;50.168;8.568;2023-07-16T12:27:23;4.63;;;2.58;;
25846;SDS011;13676;50.168;8.568;2023-07-16T12:32:14;3.60;;;2.17;;
25846;SDS011;13676;50.168;8.568;2023-07-16T12:34:39;5.65;;;2.42;;
25846;SDS011;13676;50.168;8.568;2023-07-16T12:37:05;3.80;;;1.95;;
25846;SDS011;13676;50.168;8.568;2023-07-16T12:39:32;5.18;;;2.47;;
25846;SDS011;13676;50.168;8.568;2023-07-16T12:44:27;7.15;;;3.70;;
25846;SDS011;13676;50.168;8.568;2023-07-16T12:49:21;7.75;;;3.35;;
25846;SDS011;13676;50.168;8.568;2023-07-16T12:51:46;6.32;;;2.53;;
25846;SDS011;13676;50.168;8.568;2023-07-16T12:54:12;4.40;;;2.55;;
25846;SDS011;13676;50.168;8.568;2023-07-16T12:56:37;5.68;;;2.72;;
25846;SDS011;13676;50.168;8.568;2023-07-16T12:59:04;7.63;;;2.83;;
25846;SDS011;13676;50.168;8.568;2023-07-16T13:01:29;4.50;;;2.60;;
25846;SDS011;13676;50.168;8.568;2023-07-16T13:03:55;4.90;;;2.40;;
25846;SDS011;13676;50.168;8.568;2023-07-16T13:06:21;4.35;;;2.60;;
25846;SDS011;13676;50.168;8.568;2023-07-16T13:08:46;5.78;;;2.85;;
25846;SDS011;13676;50.168;8.568;2023-07-16T13:11:12;5.55;;;2.90;;
25846;SDS011;13676;50.168;8.568;2023-07-16T13:13:38;9.35;;;3.60;;
25846;SDS011;13676;50.168;8.568;2023-07-16T13:16:03;4.43;;;2.83;;
25846;SDS011;13676;50.168;8.568;2023-07-16T13:18:29;6.78;;;2.65;;
25846;SDS011;13676;50.168;8.568;2023-07-16T13:20:54;7.07;;;3.17;;
25846;SDS011;13676;50.168;8.568;2023-07-16T13:23:20;4.60;;;2.58;;
25846;SDS011;13676;50.168;8.568;2023-07-16T13:25:45;3.38;;;2.42;;
25846;SDS011;13676;50.168;8.568;2023-07-16T13:28:10;5.05;;;2.40;;
25846;SDS011;13676;50.168;8.568;2023-07-16T13:30:36;4.80;;;2.78;;
25846;SDS011;13676;50.168;8.568;2023-07-16T13:33:02;7.88;;;3.15;;
25846;SDS011;13676;50.168;8.568;2023-07-16T13:35:29;8.68;;;3.10;;
25846;SDS011;13676;50.168;8.568;2023-07-16T13:37:55;3.97;;;2.70;;
25846;SDS011;13676;50.168;8.568;2023-07-16T13:40:20;8.57;;;3.13;;
25846;SDS011;13676;50.168;8.568;2023-07-16T13:42:46;6.95;;;3.00;;
25846;SDS011;13676;50.168;8.568;2023-07-16T13:45:12;4.78;;;2.70;;
25846;SDS011;13676;50.168;8.568;2023-07-16T13:47:38;4.47;;;2.63;;
25846;SDS011;13676;50.168;8.568;2023-07-16T13:50:03;4.90;;;2.85;;
25846;SDS011;13676;50.168;8.568;2023-07-16T13:52:29;4.57;;;2.70;;
25846;SDS011;13676;50.168;8.568;2023-07-16T13:54:54;7.13;;;3.20;;
25846;SDS011;13676;50.168;8.568;2023-07-16T13:57:20;4.82;;;2.50;;
25846;SDS011;13676;50.168;8.568;2023-07-16T13:59:45;3.60;;;2.42;;
25846;SDS011;13676;50.168;8.568;2023-07-16T14:02:11;6.20;;;2.60;;
25846;SDS011;13676;50.168;8.568;2023-07-16T14:04:36;5.93;;;3.30;;
25846;SDS011;13676;50.168;8.568;2023-07-16T14:07:02;5.13;;;2.72;;
25846;SDS011;13676;50.168;8.568;2023-07-16T14:09:27;4.63;;;2.80;;
25846;SDS011;13676;50.168;8.568;2023-07-16T14:11:56;10.27;;;2.80;;
25846;SDS011;13676;50.168;8.568;2023-07-16T14:14:21;4.32;;;2.47;;
25846;SDS011;13676;50.168;8.568;2023-07-16T14:16:47;6.57;;;3.10;;
25846;SDS011;13676;50.168;8.568;2023-07-16T14:19:12;5.13;;;3.25;;
25846;SDS011;13676;50.168;8.568;2023-07-16T14:21:38;5.35;;;2.78;;
25846;SDS011;13676;50.168;8.568;2023-07-16T14:24:04;8.57;;;3.00;;
25846;SDS011;13676;50.168;8.568;2023-07-16T14:26:30;4.40;;;2.17;;
25846;SDS011;13676;50.168;8.568;2023-07-16T14:28:55;13.27;;;2.90;;
25846;SDS011;13676;50.168;8.568;2023-07-16T14:31:24;5.25;;;2.80;;
25846;SDS011;13676;50.168;8.568;2023-07-16T14:33:49;4.80;;;2.80;;
25846;SDS011;13676;50.168;8.568;2023-07-16T14:36:16;5.40;;;3.13;;
25846;SDS011;13676;50.168;8.568;2023-07-16T14:38:43;5.07;;;2.60;;
25846;SDS011;13676;50.168;8.568;2023-07-16T14:41:09;4.75;;;2.72;;
25846;SDS011;13676;50.168;8.568;2023-07-16T14:43:35;5.40;;;2.65;;
25846;SDS011;13676;50.168;8.568;2023-07-16T14:46:04;7.85;;;2.50;;
25846;SDS011;13676;50.168;8.568;2023-07-16T14:48:29;4.47;;;2.58;;
25846;SDS011;13676;50.168;8.568;2023-07-16T14:50:54;4.85;;;2.65;;
25846;SDS011;13676;50.168;8.568;2023-07-16T14:53:20;8.82;;;3.22;;
25846;SDS011;13676;50.168;8.568;2023-07-16T14:55:49;8.27;;;2.90;;
25846;SDS011;13676;50.168;8.568;2023-07-16T14:58:19;6.57;;;3.00;;
25846;SDS011;13676;50.168;8.568;2023-07-16T15:00:46;6.05;;;3.20;;
25846;SDS011;13676;50.168;8.568;2023-07-16T15:03:12;6.82;;;3.42;;
25846;SDS011;13676;50.168;8.568;2023-07-16T15:05:37;5.68;;;3.20;;
25846;SDS011;13676;50.168;8.568;2023-07-16T15:08:03;8.18;;;3.13;;